RUNWAY INFORMATION
Runway Length Width Elevation Displaced
Threshold
Heading | Runway Length Width Elevation Displaced
Threshold
Heading
05 11483 ft 197 ft 72 ft 0 ft 53 | 23 11483 ft 197 ft 82 ft 0 ft 233
09 11483 ft 148 ft 56 ft 0 ft 92 | 27 11483 ft 148 ft 82 ft 0 ft 272

 AIRPORT FREQUENCIES
Type APP Name ALGER APP Frequency 121.4 MHZ
Type GND Name ALGER GND Frequency 121.8 MHZ
Type TWR Name ALGER TWR Frequency 118.7 MHZ

 AIRPORT NEAR NAVIGATION AIDS
Type VOR-DME Name Alger Frequency 112500 KHZ
Type NDB Name Houari Boumediene Frequency 416 KHZ
Type VOR Name Alger Frequency 113900 KHZ
Type NDB Name Houari Boumediene Frequency 370 KHZ

 METAR AND TAF INFORMATION
METAR FOR DAAG
ADDS - METARS form results

(0737 UTC 19 September 2021)
Data provider http://aviationweather.gov/metar/data/
 
METAR text: DAAG 190730Z 23003KT 200V260 9999 FEW023 24/20 Q1017
Conditions at: DAAG (DAR-EL-BEIDA/HOU, DZ) observed 0730 UTC 19 September 2021
Temperature: 24.0°C (75°F)
Dewpoint: 20.0°C (68°F) [RH = 78%]
Pressure (altimeter): 30.03 inches Hg (1017.0 mb)
Winds: from the SW (230 degrees) at 3 MPH (3 knots; 1.5 m/s)
Visibility: 6 or more miles (10+ km)
Ceiling: at least 12,000 feet AGL
Clouds: few clouds at 2300 feet AGL
Weather: no significant weather observed at this time

METAR text: DAAG 190700Z 24003KT 170V270 CAVOK 23/19 Q1017
Conditions at: DAAG (DAR-EL-BEIDA/HOU, DZ) observed 0700 UTC 19 September 2021
Temperature: 23.0°C (73°F)
Dewpoint: 19.0°C (66°F) [RH = 78%]
Pressure (altimeter): 30.03 inches Hg (1017.0 mb)
Winds: from the WSW (240 degrees) at 3 MPH (3 knots; 1.5 m/s)
Visibility: 6 or more miles (10+ km)
Ceiling: ceiling and visibility are OK
Clouds: unknown
Weather: no significant weather observed at this time

Forecast for: DAAG (DAR-EL-BEIDA/HOU, DZ)
Text: TAF DAAG 190500Z 1906/2006 VRB02KT CAVOK
Forecast period: 0600 to 1000 UTC 19 September 2021
Forecast type: FROM: standard forecast or significant change
Winds: variable direction winds at 2 MPH (2 knots; 1.0 m/s)
Visibility: 6 or more miles (10+ km)
Ceiling: unknown
Clouds: missing
Weather: NSW  (no significant weather)
Text: BECMG 1910/1913 02010KT
Forecast period: 1000 to 1800 UTC 19 September 2021
Forecast type: BECOMING: Conditions expected to become as follows by 1300 UTC 19 September 2021
Winds: from the NNE (20 degrees) at 12 MPH (10 knots; 5.1 m/s)
Visibility: 6 or more miles (10+ km)
Ceiling: unknown
Clouds: missing
Weather: NSW  (no significant weather)
Text: BECMG 1918/1921 VRB02KT
Forecast period: 1800 UTC 19 September 2021 to 0600 UTC 20 September 2021
Forecast type: BECOMING: Conditions expected to become as follows by 2100 UTC 19 September 2021
Winds: variable direction winds at 2 MPH (2 knots; 1.0 m/s)
Visibility: 6 or more miles (10+ km)
Ceiling: unknown
Clouds: missing
Weather: NSW  (no significant weather)



© 2013 - 2021, FlightSimLog.org - Powered by Virtual Airlines Manager